sensor_id;sensor_type;location;lat;lon;timestamp;pressure;altitude;pressure_sealevel;temperature;humidity
55068;BME280;40965;52.368;9.712;2023-12-14T00:02:30;100032.94;;;4.54;100.00
55068;BME280;40965;52.368;9.712;2023-12-14T00:04:57;100038.09;;;4.56;100.00
55068;BME280;40965;52.368;9.712;2023-12-14T00:07:23;100044.13;;;4.52;100.00
55068;BME280;40965;52.368;9.712;2023-12-14T00:09:50;100044.94;;;4.38;100.00
55068;BME280;40965;52.368;9.712;2023-12-14T00:12:17;100053.56;;;4.40;100.00
55068;BME280;40965;52.368;9.712;2023-12-14T00:14:44;100054.44;;;4.41;100.00
55068;BME280;40965;52.368;9.712;2023-12-14T00:17:14;100060.44;;;4.32;100.00
55068;BME280;40965;52.368;9.712;2023-12-14T00:19:40;100063.06;;;4.38;100.00
55068;BME280;40965;52.368;9.712;2023-12-14T00:22:07;100069.16;;;4.48;100.00
55068;BME280;40965;52.368;9.712;2023-12-14T00:24:37;100072.59;;;4.42;100.00
55068;BME280;40965;52.368;9.712;2023-12-14T00:27:04;100066.53;;;4.42;100.00
55068;BME280;40965;52.368;9.712;2023-12-14T00:29:30;100072.53;;;4.32;100.00
55068;BME280;40965;52.368;9.712;2023-12-14T00:31:58;100084.53;;;4.25;100.00
55068;BME280;40965;52.368;9.712;2023-12-14T00:34:25;100086.28;;;4.21;100.00
55068;BME280;40965;52.368;9.712;2023-12-14T00:36:54;100093.97;;;4.13;100.00
55068;BME280;40965;52.368;9.712;2023-12-14T00:39:23;100096.63;;;4.21;100.00
55068;BME280;40965;52.368;9.712;2023-12-14T00:41:50;100095.81;;;4.27;100.00
55068;BME280;40965;52.368;9.712;2023-12-14T00:44:20;100094.13;;;4.37;100.00
55068;BME280;40965;52.368;9.712;2023-12-14T00:47:01;100108.81;;;4.32;100.00
55068;BME280;40965;52.368;9.712;2023-12-14T00:49:30;100106.03;;;4.10;100.00
55068;BME280;40965;52.368;9.712;2023-12-14T00:51:57;100114.84;;;4.29;100.00
55068;BME280;40965;52.368;9.712;2023-12-14T00:54:29;100121.84;;;4.47;100.00
55068;BME280;40965;52.368;9.712;2023-12-14T00:56:56;100137.44;;;4.52;100.00
55068;BME280;40965;52.368;9.712;2023-12-14T00:59:23;100136.47;;;4.34;100.00
55068;BME280;40965;52.368;9.712;2023-12-14T01:01:49;100144.25;;;4.37;100.00
55068;BME280;40965;52.368;9.712;2023-12-14T01:04:16;100152.09;;;4.48;100.00
55068;BME280;40965;52.368;9.712;2023-12-14T01:06:42;100150.34;;;4.42;100.00
55068;BME280;40965;52.368;9.712;2023-12-14T01:09:09;100154.63;;;4.40;100.00
55068;BME280;40965;52.368;9.712;2023-12-14T01:11:38;100155.47;;;4.33;100.00
55068;BME280;40965;52.368;9.712;2023-12-14T01:14:05;100163.22;;;4.32;100.00
55068;BME280;40965;52.368;9.712;2023-12-14T01:16:32;100166.75;;;4.40;100.00
55068;BME280;40965;52.368;9.712;2023-12-14T01:18:59;100171.91;;;4.38;100.00
55068;BME280;40965;52.368;9.712;2023-12-14T01:21:26;100171.88;;;4.37;100.00
55068;BME280;40965;52.368;9.712;2023-12-14T01:23:56;100161.47;;;4.32;100.00
55068;BME280;40965;52.368;9.712;2023-12-14T01:26:32;100172.47;;;4.08;100.00
55068;BME280;40965;52.368;9.712;2023-12-14T01:28:59;100183.75;;;4.13;100.00
55068;BME280;40965;52.368;9.712;2023-12-14T01:31:29;100185.50;;;4.14;100.00
55068;BME280;40965;52.368;9.712;2023-12-14T01:33:58;100182.09;;;4.20;100.00
55068;BME280;40965;52.368;9.712;2023-12-14T01:36:29;100189.84;;;4.20;100.00
55068;BME280;40965;52.368;9.712;2023-12-14T01:38:55;100199.28;;;4.13;100.00
55068;BME280;40965;52.368;9.712;2023-12-14T01:41:22;100200.03;;;4.00;100.00
55068;BME280;40965;52.368;9.712;2023-12-14T01:44:01;100202.59;;;3.96;100.00
55068;BME280;40965;52.368;9.712;2023-12-14T01:46:33;100208.56;;;3.91;100.00
55068;BME280;40965;52.368;9.712;2023-12-14T01:48:59;100218.81;;;3.81;100.00
55068;BME280;40965;52.368;9.712;2023-12-14T01:51:28;100226.84;;;4.02;100.00
55068;BME280;40965;52.368;9.712;2023-12-14T01:53:59;100226.88;;;4.08;100.00
55068;BME280;40965;52.368;9.712;2023-12-14T01:56:33;100225.19;;;4.13;100.00
55068;BME280;40965;52.368;9.712;2023-12-14T01:59:02;100223.50;;;4.17;100.00
55068;BME280;40965;52.368;9.712;2023-12-14T02:01:40;100227.03;;;4.22;100.00
55068;BME280;40965;52.368;9.712;2023-12-14T02:04:11;100229.59;;;4.19;100.00
55068;BME280;40965;52.368;9.712;2023-12-14T02:06:42;100236.38;;;4.06;100.00
55068;BME280;40965;52.368;9.712;2023-12-14T02:09:10;100238.13;;;4.08;100.00
55068;BME280;40965;52.368;9.712;2023-12-14T02:11:39;100245.41;;;3.67;100.00
55068;BME280;40965;52.368;9.712;2023-12-14T02:14:09;100252.47;;;3.80;100.00
55068;BME280;40965;52.368;9.712;2023-12-14T02:16:36;100248.13;;;3.79;100.00
55068;BME280;40965;52.368;9.712;2023-12-14T02:19:06;100251.59;;;3.79;100.00
55068;BME280;40965;52.368;9.712;2023-12-14T02:21:33;100251.56;;;3.78;100.00
55068;BME280;40965;52.368;9.712;2023-12-14T02:23:59;100256.75;;;3.78;100.00
55068;BME280;40965;52.368;9.712;2023-12-14T02:26:26;100259.47;;;3.87;100.00
55068;BME280;40965;52.368;9.712;2023-12-14T02:28:55;100261.97;;;3.79;100.00
55068;BME280;40965;52.368;9.712;2023-12-14T02:31:22;100252.56;;;3.88;100.00
55068;BME280;40965;52.368;9.712;2023-12-14T02:33:49;100266.44;;;3.93;100.00
55068;BME280;40965;52.368;9.712;2023-12-14T02:36:18;100275.97;;;3.98;100.00
55068;BME280;40965;52.368;9.712;2023-12-14T02:38:47;100282.16;;;4.07;100.00
55068;BME280;40965;52.368;9.712;2023-12-14T02:41:14;100282.16;;;4.10;100.00
55068;BME280;40965;52.368;9.712;2023-12-14T02:43:40;100292.63;;;4.19;100.00
55068;BME280;40965;52.368;9.712;2023-12-14T02:46:08;100289.84;;;4.01;100.00
55068;BME280;40965;52.368;9.712;2023-12-14T02:48:41;100288.00;;;3.92;100.00
55068;BME280;40965;52.368;9.712;2023-12-14T02:51:14;100298.25;;;3.86;100.00
55068;BME280;40965;52.368;9.712;2023-12-14T02:53:41;100300.75;;;3.78;100.00
55068;BME280;40965;52.368;9.712;2023-12-14T02:56:09;100298.25;;;3.84;100.00
55068;BME280;40965;52.368;9.712;2023-12-14T02:58:37;100303.53;;;3.90;100.00
55068;BME280;40965;52.368;9.712;2023-12-14T03:01:03;100306.31;;;4.06;100.00
55068;BME280;40965;52.368;9.712;2023-12-14T03:03:30;100308.81;;;4.01;100.00
55068;BME280;40965;52.368;9.712;2023-12-14T03:06:02;100309.72;;;4.02;100.00
55068;BME280;40965;52.368;9.712;2023-12-14T03:08:29;100308.00;;;4.05;100.00
55068;BME280;40965;52.368;9.712;2023-12-14T03:10:55;100313.09;;;3.97;100.00
55068;BME280;40965;52.368;9.712;2023-12-14T03:13:22;100307.06;;;3.97;100.00
55068;BME280;40965;52.368;9.712;2023-12-14T03:15:49;100318.38;;;4.05;100.00
55068;BME280;40965;52.368;9.712;2023-12-14T03:18:16;100318.25;;;3.96;100.00
55068;BME280;40965;52.368;9.712;2023-12-14T03:20:43;100319.25;;;4.07;100.00
55068;BME280;40965;52.368;9.712;2023-12-14T03:23:10;100326.97;;;4.03;100.00
55068;BME280;40965;52.368;9.712;2023-12-14T03:25:37;100322.69;;;4.03;100.00
55068;BME280;40965;52.368;9.712;2023-12-14T03:28:06;100317.50;;;4.03;100.00
55068;BME280;40965;52.368;9.712;2023-12-14T03:30:35;100327.97;;;4.14;100.00
55068;BME280;40965;52.368;9.712;2023-12-14T03:33:02;100329.75;;;4.18;100.00
55068;BME280;40965;52.368;9.712;2023-12-14T03:35:32;100335.75;;;4.14;100.00
55068;BME280;40965;52.368;9.712;2023-12-14T03:37:59;100339.25;;;4.18;100.00
55068;BME280;40965;52.368;9.712;2023-12-14T03:40:26;100341.84;;;4.19;100.00
55068;BME280;40965;52.368;9.712;2023-12-14T03:42:53;100342.78;;;4.24;100.00
55068;BME280;40965;52.368;9.712;2023-12-14T03:45:19;100343.69;;;4.28;100.00
55068;BME280;40965;52.368;9.712;2023-12-14T03:47:48;100347.91;;;4.20;100.00
55068;BME280;40965;52.368;9.712;2023-12-14T03:50:23;100340.75;;;4.00;100.00
55068;BME280;40965;52.368;9.712;2023-12-14T03:52:50;100340.78;;;4.02;100.00
55068;BME280;40965;52.368;9.712;2023-12-14T03:55:16;100354.69;;;4.10;100.00
55068;BME280;40965;52.368;9.712;2023-12-14T03:57:48;100359.97;;;4.18;100.00
55068;BME280;40965;52.368;9.712;2023-12-14T04:00:15;100363.38;;;4.13;100.00
55068;BME280;40965;52.368;9.712;2023-12-14T04:02:44;100373.88;;;4.24;100.00
55068;BME280;40965;52.368;9.712;2023-12-14T04:05:11;100372.13;;;4.23;100.00
55068;BME280;40965;52.368;9.712;2023-12-14T04:07:38;100382.50;;;4.25;100.00
55068;BME280;40965;52.368;9.712;2023-12-14T04:10:09;100386.72;;;4.15;100.00
55068;BME280;40965;52.368;9.712;2023-12-14T04:12:38;100394.47;;;4.13;100.00
55068;BME280;40965;52.368;9.712;2023-12-14T04:15:07;100400.44;;;4.08;100.00
55068;BME280;40965;52.368;9.712;2023-12-14T04:17:34;100398.63;;;4.01;100.00
55068;BME280;40965;52.368;9.712;2023-12-14T04:20:02;100403.81;;;4.04;100.00
55068;BME280;40965;52.368;9.712;2023-12-14T04:22:31;100410.72;;;4.02;100.00
55068;BME280;40965;52.368;9.712;2023-12-14T04:24:58;100416.88;;;4.10;100.00
55068;BME280;40965;52.368;9.712;2023-12-14T04:27:26;100411.78;;;4.16;100.00
55068;BME280;40965;52.368;9.712;2023-12-14T04:29:55;100423.59;;;3.98;100.00
55068;BME280;40965;52.368;9.712;2023-12-14T04:32:22;100418.31;;;3.91;100.00
55068;BME280;40965;52.368;9.712;2023-12-14T04:34:48;100424.41;;;3.93;100.00
55068;BME280;40965;52.368;9.712;2023-12-14T04:37:15;100420.75;;;3.80;100.00
55068;BME280;40965;52.368;9.712;2023-12-14T04:39:48;100429.50;;;3.87;100.00
55068;BME280;40965;52.368;9.712;2023-12-14T04:42:22;100430.31;;;3.86;100.00
55068;BME280;40965;52.368;9.712;2023-12-14T04:44:49;100442.38;;;3.82;100.00
55068;BME280;40965;52.368;9.712;2023-12-14T04:47:16;100440.78;;;3.90;100.00
55068;BME280;40965;52.368;9.712;2023-12-14T04:49:43;100449.47;;;3.94;100.00
55068;BME280;40965;52.368;9.712;2023-12-14T04:52:10;100454.72;;;4.00;100.00
55068;BME280;40965;52.368;9.712;2023-12-14T04:54:37;100465.19;;;4.08;100.00
55068;BME280;40965;52.368;9.712;2023-12-14T04:57:05;100457.53;;;4.16;100.00
55068;BME280;40965;52.368;9.712;2023-12-14T04:59:32;100461.44;;;3.87;100.00
55068;BME280;40965;52.368;9.712;2023-12-14T05:01:59;100455.34;;;3.82;100.00
55068;BME280;40965;52.368;9.712;2023-12-14T05:04:25;100457.00;;;3.80;100.00
55068;BME280;40965;52.368;9.712;2023-12-14T05:06:57;100469.28;;;3.92;100.00
55068;BME280;40965;52.368;9.712;2023-12-14T05:09:24;100476.34;;;4.02;100.00
55068;BME280;40965;52.368;9.712;2023-12-14T05:11:53;100470.19;;;3.95;100.00
55068;BME280;40965;52.368;9.712;2023-12-14T05:14:20;100470.91;;;3.87;100.00
55068;BME280;40965;52.368;9.712;2023-12-14T05:16:47;100477.06;;;3.93;100.00
55068;BME280;40965;52.368;9.712;2023-12-14T05:19:13;100492.69;;;4.00;100.00
55068;BME280;40965;52.368;9.712;2023-12-14T05:21:39;100492.81;;;4.06;100.00
55068;BME280;40965;52.368;9.712;2023-12-14T05:24:06;100500.47;;;3.98;100.00
55068;BME280;40965;52.368;9.712;2023-12-14T05:26:32;100503.28;;;4.15;100.00
55068;BME280;40965;52.368;9.712;2023-12-14T05:28:59;100498.13;;;4.17;100.00
55068;BME280;40965;52.368;9.712;2023-12-14T05:31:28;100509.31;;;4.14;100.00
55068;BME280;40965;52.368;9.712;2023-12-14T05:33:55;100509.34;;;4.17;100.00
55068;BME280;40965;52.368;9.712;2023-12-14T05:36:23;100517.00;;;4.08;100.00
55068;BME280;40965;52.368;9.712;2023-12-14T05:38:49;100518.84;;;4.17;100.00
55068;BME280;40965;52.368;9.712;2023-12-14T05:41:16;100524.97;;;4.20;100.00
55068;BME280;40965;52.368;9.712;2023-12-14T05:43:44;100521.59;;;4.26;100.00
55068;BME280;40965;52.368;9.712;2023-12-14T05:46:23;100526.84;;;4.29;100.00
55068;BME280;40965;52.368;9.712;2023-12-14T05:48:50;100535.38;;;4.25;100.00
55068;BME280;40965;52.368;9.712;2023-12-14T05:51:29;100541.34;;;4.18;100.00
55068;BME280;40965;52.368;9.712;2023-12-14T05:53:57;100541.38;;;4.22;100.00
55068;BME280;40965;52.368;9.712;2023-12-14T05:56:25;100542.34;;;4.27;100.00
55068;BME280;40965;52.368;9.712;2023-12-14T05:58:51;100550.06;;;4.23;100.00
55068;BME280;40965;52.368;9.712;2023-12-14T06:01:18;100557.06;;;4.30;100.00
55068;BME280;40965;52.368;9.712;2023-12-14T06:03:45;100555.38;;;4.32;100.00
55068;BME280;40965;52.368;9.712;2023-12-14T06:06:12;100555.34;;;4.30;100.00
55068;BME280;40965;52.368;9.712;2023-12-14T06:08:40;100559.59;;;4.27;100.00
55068;BME280;40965;52.368;9.712;2023-12-14T06:11:07;100550.81;;;4.17;100.00
55068;BME280;40965;52.368;9.712;2023-12-14T06:13:37;100557.81;;;4.21;100.00
55068;BME280;40965;52.368;9.712;2023-12-14T06:16:07;100557.69;;;4.15;100.00
55068;BME280;40965;52.368;9.712;2023-12-14T06:18:38;100559.34;;;4.10;100.00
55068;BME280;40965;52.368;9.712;2023-12-14T06:21:06;100566.31;;;4.14;100.00
55068;BME280;40965;52.368;9.712;2023-12-14T06:23:35;100568.16;;;4.21;100.00
55068;BME280;40965;52.368;9.712;2023-12-14T06:26:05;100573.28;;;4.18;100.00
55068;BME280;40965;52.368;9.712;2023-12-14T06:28:32;100588.13;;;4.27;100.00
55068;BME280;40965;52.368;9.712;2023-12-14T06:30:59;100586.38;;;4.26;100.00
55068;BME280;40965;52.368;9.712;2023-12-14T06:33:30;100587.03;;;4.12;100.00
55068;BME280;40965;52.368;9.712;2023-12-14T06:35:57;100584.25;;;4.02;100.00
55068;BME280;40965;52.368;9.712;2023-12-14T06:38:24;100584.25;;;4.02;100.00
55068;BME280;40965;52.368;9.712;2023-12-14T06:40:50;100592.91;;;4.02;100.00
55068;BME280;40965;52.368;9.712;2023-12-14T06:43:17;100598.63;;;3.84;100.00
55068;BME280;40965;52.368;9.712;2023-12-14T06:45:44;100604.72;;;3.86;100.00
55068;BME280;40965;52.368;9.712;2023-12-14T06:48:12;100604.91;;;3.97;100.00
55068;BME280;40965;52.368;9.712;2023-12-14T06:50:39;100606.66;;;4.00;100.00
55068;BME280;40965;52.368;9.712;2023-12-14T06:53:09;100614.59;;;4.10;100.00
55068;BME280;40965;52.368;9.712;2023-12-14T06:55:35;100612.13;;;4.17;100.00
55068;BME280;40965;52.368;9.712;2023-12-14T06:58:02;100614.75;;;4.20;100.00
55068;BME280;40965;52.368;9.712;2023-12-14T07:00:29;100620.03;;;4.24;100.00
55068;BME280;40965;52.368;9.712;2023-12-14T07:02:55;100622.59;;;4.21;100.00
55068;BME280;40965;52.368;9.712;2023-12-14T07:05:22;100632.06;;;4.22;100.00
55068;BME280;40965;52.368;9.712;2023-12-14T07:07:49;100632.22;;;4.30;100.00
55068;BME280;40965;52.368;9.712;2023-12-14T07:10:16;100637.38;;;4.30;100.00
55068;BME280;40965;52.368;9.712;2023-12-14T07:12:42;100641.72;;;4.29;100.00
55068;BME280;40965;52.368;9.712;2023-12-14T07:15:09;100643.22;;;4.17;100.00
55068;BME280;40965;52.368;9.712;2023-12-14T07:17:36;100651.09;;;4.23;100.00
55068;BME280;40965;52.368;9.712;2023-12-14T07:20:02;100651.75;;;4.09;100.00
55068;BME280;40965;52.368;9.712;2023-12-14T07:22:29;100663.91;;;4.13;100.00
55068;BME280;40965;52.368;9.712;2023-12-14T07:24:56;100665.59;;;4.11;100.00
55068;BME280;40965;52.368;9.712;2023-12-14T07:27:22;100671.75;;;4.20;100.00
55068;BME280;40965;52.368;9.712;2023-12-14T07:29:49;100679.59;;;4.23;100.00
55068;BME280;40965;52.368;9.712;2023-12-14T07:32:16;100684.78;;;4.21;100.00
55068;BME280;40965;52.368;9.712;2023-12-14T07:34:45;100686.44;;;4.18;100.00
55068;BME280;40965;52.368;9.712;2023-12-14T07:37:12;100702.97;;;4.26;100.00
55068;BME280;40965;52.368;9.712;2023-12-14T07:39:40;100703.81;;;4.25;100.00
55068;BME280;40965;52.368;9.712;2023-12-14T07:42:09;100708.13;;;4.24;100.00
55068;BME280;40965;52.368;9.712;2023-12-14T07:44:36;100723.56;;;4.18;100.00
55068;BME280;40965;52.368;9.712;2023-12-14T07:47:05;100726.16;;;4.20;100.00
55068;BME280;40965;52.368;9.712;2023-12-14T07:49:32;100735.81;;;4.27;100.00
55068;BME280;40965;52.368;9.712;2023-12-14T07:51:58;100726.38;;;4.29;100.00
55068;BME280;40965;52.368;9.712;2023-12-14T07:54:25;100733.09;;;4.19;100.00
55068;BME280;40965;52.368;9.712;2023-12-14T07:56:52;100742.59;;;4.19;100.00
55068;BME280;40965;52.368;9.712;2023-12-14T07:59:18;100745.91;;;4.13;100.00
55068;BME280;40965;52.368;9.712;2023-12-14T08:01:45;100745.94;;;4.14;100.00
55068;BME280;40965;52.368;9.712;2023-12-14T08:04:12;100759.69;;;4.10;100.00
55068;BME280;40965;52.368;9.712;2023-12-14T08:06:49;100766.66;;;4.14;100.00
55068;BME280;40965;52.368;9.712;2023-12-14T08:09:15;100763.16;;;4.09;100.00
55068;BME280;40965;52.368;9.712;2023-12-14T08:11:41;100762.44;;;4.20;100.00
55068;BME280;40965;52.368;9.712;2023-12-14T08:14:08;100772.91;;;4.23;100.00
55068;BME280;40965;52.368;9.712;2023-12-14T08:16:34;100774.66;;;4.24;100.00
55068;BME280;40965;52.368;9.712;2023-12-14T08:19:01;100772.91;;;4.24;100.00
55068;BME280;40965;52.368;9.712;2023-12-14T08:21:27;100777.25;;;4.25;100.00
55068;BME280;40965;52.368;9.712;2023-12-14T08:23:54;100785.75;;;4.18;100.00
55068;BME280;40965;52.368;9.712;2023-12-14T08:26:23;100792.66;;;4.18;100.00
55068;BME280;40965;52.368;9.712;2023-12-14T08:28:51;100803.56;;;4.01;100.00
55068;BME280;40965;52.368;9.712;2023-12-14T08:31:20;100803.72;;;4.10;100.00
55068;BME280;40965;52.368;9.712;2023-12-14T08:33:51;100807.38;;;4.19;100.00
55068;BME280;40965;52.368;9.712;2023-12-14T08:36:29;100813.22;;;4.10;100.00
55068;BME280;40965;52.368;9.712;2023-12-14T08:39:02;100815.03;;;4.14;100.00
55068;BME280;40965;52.368;9.712;2023-12-14T08:41:33;100819.28;;;4.10;100.00
55068;BME280;40965;52.368;9.712;2023-12-14T08:44:05;100827.28;;;4.21;100.00
55068;BME280;40965;52.368;9.712;2023-12-14T08:46:45;100831.53;;;4.18;100.00
55068;BME280;40965;52.368;9.712;2023-12-14T08:49:17;100842.78;;;4.20;100.00
55068;BME280;40965;52.368;9.712;2023-12-14T08:51:46;100847.13;;;4.21;100.00
55068;BME280;40965;52.368;9.712;2023-12-14T08:54:15;100847.94;;;4.18;100.00
55068;BME280;40965;52.368;9.712;2023-12-14T08:56:49;100850.53;;;4.18;100.00
55068;BME280;40965;52.368;9.712;2023-12-14T08:59:22;100854.09;;;4.23;100.00
55068;BME280;40965;52.368;9.712;2023-12-14T09:01:56;100861.94;;;4.26;100.00
55068;BME280;40965;52.368;9.712;2023-12-14T09:04:23;100868.94;;;4.32;100.00
55068;BME280;40965;52.368;9.712;2023-12-14T09:06:49;100868.13;;;4.33;100.00
55068;BME280;40965;52.368;9.712;2023-12-14T09:09:17;100875.78;;;4.28;100.00
55068;BME280;40965;52.368;9.712;2023-12-14T09:11:49;100870.63;;;4.30;100.00
55068;BME280;40965;52.368;9.712;2023-12-14T09:14:16;100878.53;;;4.36;100.00
55068;BME280;40965;52.368;9.712;2023-12-14T09:16:42;100885.59;;;4.43;100.00
55068;BME280;40965;52.368;9.712;2023-12-14T09:19:09;100889.91;;;4.43;100.00
55068;BME280;40965;52.368;9.712;2023-12-14T09:21:37;100883.91;;;4.47;100.00
55068;BME280;40965;52.368;9.712;2023-12-14T09:24:03;100889.97;;;4.46;100.00
55068;BME280;40965;52.368;9.712;2023-12-14T09:26:30;100892.63;;;4.51;100.00
55068;BME280;40965;52.368;9.712;2023-12-14T09:28:57;100896.03;;;4.48;100.00
55068;BME280;40965;52.368;9.712;2023-12-14T09:31:24;100897.81;;;4.51;100.00
55068;BME280;40965;52.368;9.712;2023-12-14T09:33:50;100909.97;;;4.53;100.00
55068;BME280;40965;52.368;9.712;2023-12-14T09:36:20;100910.72;;;4.46;100.00
55068;BME280;40965;52.368;9.712;2023-12-14T09:38:50;100911.53;;;4.43;100.00
55068;BME280;40965;52.368;9.712;2023-12-14T09:41:19;100912.38;;;4.44;100.00
55068;BME280;40965;52.368;9.712;2023-12-14T09:43:45;100910.78;;;4.51;100.00
55068;BME280;40965;52.368;9.712;2023-12-14T09:46:15;100916.88;;;4.53;100.00
55068;BME280;40965;52.368;9.712;2023-12-14T09:48:45;100924.03;;;4.64;100.00
55068;BME280;40965;52.368;9.712;2023-12-14T09:51:13;100923.34;;;4.73;100.00
55068;BME280;40965;52.368;9.712;2023-12-14T09:53:40;100931.13;;;4.73;100.00
55068;BME280;40965;52.368;9.712;2023-12-14T09:56:07;100933.72;;;4.73;100.00
55068;BME280;40965;52.368;9.712;2023-12-14T09:58:34;100937.06;;;4.68;100.00
55068;BME280;40965;52.368;9.712;2023-12-14T10:01:02;100941.44;;;4.72;100.00
55068;BME280;40965;52.368;9.712;2023-12-14T10:03:30;100935.41;;;4.71;100.00
55068;BME280;40965;52.368;9.712;2023-12-14T10:05:58;100942.31;;;4.71;100.00
55068;BME280;40965;52.368;9.712;2023-12-14T10:08:28;100951.09;;;4.77;100.00
55068;BME280;40965;52.368;9.712;2023-12-14T10:10:55;100946.00;;;4.84;100.00
55068;BME280;40965;52.368;9.712;2023-12-14T10:13:36;100949.47;;;4.84;100.00
55068;BME280;40965;52.368;9.712;2023-12-14T10:16:03;100944.13;;;4.75;100.00
55068;BME280;40965;52.368;9.712;2023-12-14T10:18:31;100945.94;;;4.80;100.00
55068;BME280;40965;52.368;9.712;2023-12-14T10:21:02;100951.13;;;4.79;100.00
55068;BME280;40965;52.368;9.712;2023-12-14T10:23:29;100952.09;;;4.86;100.00
55068;BME280;40965;52.368;9.712;2023-12-14T10:25:57;100959.97;;;4.90;100.00
55068;BME280;40965;52.368;9.712;2023-12-14T10:28:24;100960.03;;;4.93;100.00
55068;BME280;40965;52.368;9.712;2023-12-14T10:30:50;100968.00;;;5.04;100.00
55068;BME280;40965;52.368;9.712;2023-12-14T10:33:17;100966.94;;;4.93;100.00
55068;BME280;40965;52.368;9.712;2023-12-14T10:35:44;100973.00;;;4.93;100.00
55068;BME280;40965;52.368;9.712;2023-12-14T10:38:15;100975.69;;;4.98;100.00
55068;BME280;40965;52.368;9.712;2023-12-14T10:40:41;100990.44;;;5.01;100.00
55068;BME280;40965;52.368;9.712;2023-12-14T10:43:12;100994.03;;;5.07;100.00
55068;BME280;40965;52.368;9.712;2023-12-14T10:45:39;100996.69;;;5.10;100.00
55068;BME280;40965;52.368;9.712;2023-12-14T10:48:10;100993.88;;;5.00;100.00
55068;BME280;40965;52.368;9.712;2023-12-14T10:50:38;101001.66;;;4.98;100.00
55068;BME280;40965;52.368;9.712;2023-12-14T10:53:11;101005.91;;;4.96;100.00
55068;BME280;40965;52.368;9.712;2023-12-14T10:55:41;101002.31;;;4.89;100.00
55068;BME280;40965;52.368;9.712;2023-12-14T10:58:10;101010.13;;;4.91;100.00
55068;BME280;40965;52.368;9.712;2023-12-14T11:00:58;101010.25;;;4.97;100.00
55068;BME280;40965;52.368;9.712;2023-12-14T11:03:35;101016.44;;;5.04;100.00
55068;BME280;40965;52.368;9.712;2023-12-14T11:06:48;101017.25;;;5.01;100.00
55068;BME280;40965;52.368;9.712;2023-12-14T11:09:12;101019.88;;;5.03;100.00
55068;BME280;40965;52.368;9.712;2023-12-14T11:14:23;101015.50;;;5.00;100.00
55068;BME280;40965;52.368;9.712;2023-12-14T11:16:54;101025.09;;;5.04;100.00
55068;BME280;40965;52.368;9.712;2023-12-14T11:22:09;101019.97;;;5.07;100.00
55068;BME280;40965;52.368;9.712;2023-12-14T11:24:51;101024.06;;;4.94;100.00
55068;BME280;40965;52.368;9.712;2023-12-14T11:27:26;101026.78;;;5.01;100.00
55068;BME280;40965;52.368;9.712;2023-12-14T11:29:56;101027.69;;;5.04;100.00
55068;BME280;40965;52.368;9.712;2023-12-14T11:32:24;101031.06;;;5.00;100.00
55068;BME280;40965;52.368;9.712;2023-12-14T11:34:51;101042.28;;;4.99;100.00
55068;BME280;40965;52.368;9.712;2023-12-14T11:37:17;101042.25;;;4.97;100.00
55068;BME280;40965;52.368;9.712;2023-12-14T11:39:45;101046.34;;;4.86;100.00
55068;BME280;40965;52.368;9.712;2023-12-14T11:42:12;101043.81;;;4.88;100.00
55068;BME280;40965;52.368;9.712;2023-12-14T11:44:43;101054.06;;;4.83;100.00
55068;BME280;40965;52.368;9.712;2023-12-14T11:47:10;101059.25;;;4.83;100.00
55068;BME280;40965;52.368;9.712;2023-12-14T11:49:37;101057.66;;;4.90;100.00
55068;BME280;40965;52.368;9.712;2023-12-14T11:52:04;101056.97;;;4.97;100.00
55068;BME280;40965;52.368;9.712;2023-12-14T11:54:30;101061.25;;;4.96;100.00
55068;BME280;40965;52.368;9.712;2023-12-14T11:57:01;101061.31;;;4.98;100.00
55068;BME280;40965;52.368;9.712;2023-12-14T11:59:34;101065.78;;;5.07;100.00
55068;BME280;40965;52.368;9.712;2023-12-14T12:02:01;101064.28;;;5.17;100.00
55068;BME280;40965;52.368;9.712;2023-12-14T12:04:28;101068.69;;;5.21;100.00
55068;BME280;40965;52.368;9.712;2023-12-14T12:07:16;101068.72;;;5.24;100.00
55068;BME280;40965;52.368;9.712;2023-12-14T12:09:43;101073.06;;;5.23;100.00
55068;BME280;40965;52.368;9.712;2023-12-14T12:12:11;101075.38;;;5.09;100.00
55068;BME280;40965;52.368;9.712;2023-12-14T12:14:41;101075.28;;;5.05;100.00
55068;BME280;40965;52.368;9.712;2023-12-14T12:17:08;101080.28;;;4.95;100.00
55068;BME280;40965;52.368;9.712;2023-12-14T12:19:36;101073.56;;;5.05;100.00
55068;BME280;40965;52.368;9.712;2023-12-14T12:22:04;101071.16;;;5.16;100.00
55068;BME280;40965;52.368;9.712;2023-12-14T12:24:30;101067.75;;;5.19;100.00
55068;BME280;40965;52.368;9.712;2023-12-14T12:27:00;101078.13;;;5.17;100.00
55068;BME280;40965;52.368;9.712;2023-12-14T12:29:30;101080.78;;;5.20;100.00
55068;BME280;40965;52.368;9.712;2023-12-14T12:31:59;101081.53;;;5.16;100.00
55068;BME280;40965;52.368;9.712;2023-12-14T12:34:26;101091.75;;;5.07;100.00
55068;BME280;40965;52.368;9.712;2023-12-14T12:36:55;101093.53;;;5.09;100.00
55068;BME280;40965;52.368;9.712;2023-12-14T12:39:22;101084.78;;;5.06;100.00
55068;BME280;40965;52.368;9.712;2023-12-14T12:41:49;101093.38;;;5.02;100.00
55068;BME280;40965;52.368;9.712;2023-12-14T12:44:16;101097.06;;;5.13;100.00
55068;BME280;40965;52.368;9.712;2023-12-14T12:49:31;101092.03;;;5.21;100.00
55068;BME280;40965;52.368;9.712;2023-12-14T12:51:58;101107.59;;;5.19;100.00
55068;BME280;40965;52.368;9.712;2023-12-14T12:54:25;101101.25;;;5.05;100.00
55068;BME280;40965;52.368;9.712;2023-12-14T12:56:54;101101.22;;;5.03;100.00
55068;BME280;40965;52.368;9.712;2023-12-14T12:59:25;101100.28;;;5.01;100.00
55068;BME280;40965;52.368;9.712;2023-12-14T13:01:54;101093.44;;;5.03;100.00
55068;BME280;40965;52.368;9.712;2023-12-14T13:04:21;101109.03;;;5.06;100.00
55068;BME280;40965;52.368;9.712;2023-12-14T13:06:49;101109.19;;;5.12;100.00